Time;durP1;ratioP1;P1;durP2;ratioP2;P2;SDS_P1;SDS_P2;PMS_P1;PMS_P2;Temp;Humidity;BMP_temperature;BMP_pressure;BME280_temperature;BME280_humidity;BME280_pressure;Samples;Min_cycle;Max_cycle;Signal;HPM_P1;HPM_P2
2022/04/23 00:01:31;;;;;;;16.65;2.45;;;;;;;;;;10437731;28;20036;-53
2022/04/23 00:06:32;;;;;;;8.27;2.25;;;;;;;;;;10432045;28;20044;-59
2022/04/23 00:11:32;;;;;;;10.30;2.35;;;;;;;;;;10423880;28;20083;-59
2022/04/23 00:16:33;;;;;;;7.72;1.83;;;;;;;;;;10423465;28;20417;-57
2022/04/23 00:21:34;;;;;;;7.25;1.80;;;;;;;;;;10440944;28;20120;-56
2022/04/23 00:26:34;;;;;;;10.73;1.90;;;;;;;;;;10418425;28;20033;-60
2022/04/23 00:31:36;;;;;;;14.02;2.22;;;;;;;;;;10437549;28;20142;-56
2022/04/23 00:36:37;;;;;;;4.35;2.15;;;;;;;;;;10430825;28;20037;-61
2022/04/23 00:41:45;;;;;;;11.82;1.73;;;;;;;;;;10436538;28;20472;-59
2022/04/23 00:46:45;;;;;;;7.43;2.30;;;;;;;;;;10438491;28;20080;-58
2022/04/23 00:51:48;;;;;;;9.68;2.17;;;;;;;;;;10437837;28;20124;-58
2022/04/23 00:56:48;;;;;;;4.22;2.08;;;;;;;;;;10435317;28;20049;-59
2022/04/23 01:01:53;;;;;;;7.97;1.58;;;;;;;;;;10427640;28;20044;-50
2022/04/23 01:06:53;;;;;;;6.18;1.90;;;;;;;;;;10437763;28;20169;-60
2022/04/23 01:11:58;;;;;;;5.78;1.45;;;;;;;;;;10437126;28;20112;-60
2022/04/23 01:16:58;;;;;;;6.63;1.95;;;;;;;;;;10432113;28;20036;-57
2022/04/23 01:21:59;;;;;;;3.15;1.73;;;;;;;;;;10430952;28;20132;-53
2022/04/23 01:27:00;;;;;;;6.57;1.92;;;;;;;;;;10441667;28;20025;-50
2022/04/23 01:32:04;;;;;;;4.72;1.70;;;;;;;;;;10440144;28;20037;-49
2022/04/23 01:37:04;;;;;;;3.10;1.90;;;;;;;;;;10432837;28;20049;-51
2022/04/23 01:42:05;;;;;;;3.88;1.63;;;;;;;;;;10448951;28;20102;-51
2022/04/23 01:47:06;;;;;;;4.68;1.60;;;;;;;;;;10433891;28;20040;-50
2022/04/23 01:52:07;;;;;;;4.90;2.05;;;;;;;;;;10441460;28;20029;-52
2022/04/23 01:57:08;;;;;;;5.78;2.05;;;;;;;;;;10438774;28;20063;-53
2022/04/23 02:02:08;;;;;;;5.93;1.48;;;;;;;;;;10435120;28;20029;-59
2022/04/23 02:07:09;;;;;;;5.97;1.42;;;;;;;;;;10411385;28;20772;-54
2022/04/23 02:12:10;;;;;;;6.20;1.50;;;;;;;;;;10419998;28;20037;-60
2022/04/23 02:17:11;;;;;;;7.47;1.88;;;;;;;;;;10431242;28;20037;-60
2022/04/23 02:22:11;;;;;;;3.53;1.60;;;;;;;;;;10434912;28;20396;-60
2022/04/23 02:27:12;;;;;;;3.03;1.63;;;;;;;;;;10433882;28;20558;-59
2022/04/23 02:32:12;;;;;;;5.88;1.50;;;;;;;;;;10439277;28;20436;-58
2022/04/23 02:37:13;;;;;;;7.93;1.70;;;;;;;;;;10432211;28;20428;-60
2022/04/23 02:42:14;;;;;;;4.05;1.30;;;;;;;;;;10426496;28;20155;-60
2022/04/23 02:47:15;;;;;;;4.85;1.63;;;;;;;;;;10432631;28;20357;-57
2022/04/23 02:52:15;;;;;;;2.50;1.50;;;;;;;;;;10427319;28;20500;-58
2022/04/23 02:57:16;;;;;;;6.38;1.42;;;;;;;;;;10440867;28;20052;-56
2022/04/23 03:02:17;;;;;;;1.80;1.30;;;;;;;;;;10431187;28;20499;-58
2022/04/23 03:07:19;;;;;;;2.63;1.52;;;;;;;;;;10433541;28;20066;-58
2022/04/23 03:12:20;;;;;;;3.03;1.40;;;;;;;;;;10431190;28;20025;-59
2022/04/23 03:17:20;;;;;;;2.78;1.60;;;;;;;;;;10436985;28;20033;-58
2022/04/23 03:22:21;;;;;;;2.55;1.05;;;;;;;;;;10436610;28;20041;-59
2022/04/23 03:27:22;;;;;;;4.28;1.30;;;;;;;;;;10432275;28;20052;-59
2022/04/23 03:32:23;;;;;;;2.85;1.70;;;;;;;;;;10427571;28;20035;-60
2022/04/23 03:37:23;;;;;;;2.55;1.38;;;;;;;;;;10435667;28;20053;-59
2022/04/23 03:42:24;;;;;;;4.50;1.73;;;;;;;;;;10429998;28;20044;-59
2022/04/23 03:47:24;;;;;;;2.33;1.60;;;;;;;;;;10432451;28;20522;-60
2022/04/23 03:52:25;;;;;;;2.78;1.55;;;;;;;;;;10430295;28;20104;-61
2022/04/23 03:57:26;;;;;;;1.85;1.35;;;;;;;;;;10429056;28;20045;-59
2022/04/23 04:02:27;;;;;;;5.65;1.13;;;;;;;;;;10439168;28;20033;-61
2022/04/23 04:07:27;;;;;;;3.45;1.45;;;;;;;;;;10418935;28;20040;-60
2022/04/23 04:12:28;;;;;;;4.25;1.60;;;;;;;;;;10421699;28;20495;-61
2022/04/23 04:17:29;;;;;;;1.83;1.30;;;;;;;;;;10428328;28;20029;-61
2022/04/23 04:22:30;;;;;;;3.50;1.58;;;;;;;;;;10429285;28;20029;-62
2022/04/23 04:27:33;;;;;;;2.30;1.58;;;;;;;;;;10406161;28;20389;-62
2022/04/23 04:32:33;;;;;;;1.50;1.38;;;;;;;;;;10439117;28;20033;-62
2022/04/23 04:37:34;;;;;;;1.77;1.40;;;;;;;;;;10428780;28;20032;-60
2022/04/23 04:42:34;;;;;;;2.95;1.63;;;;;;;;;;10434931;28;20028;-61
2022/04/23 04:47:35;;;;;;;1.73;1.50;;;;;;;;;;10431306;28;20041;-61
2022/04/23 04:52:36;;;;;;;2.83;1.65;;;;;;;;;;10431856;28;20044;-62
2022/04/23 04:57:36;;;;;;;1.42;1.33;;;;;;;;;;10430811;28;20057;-61
2022/04/23 05:02:37;;;;;;;4.85;1.48;;;;;;;;;;10427987;28;20082;-61
2022/04/23 05:07:38;;;;;;;1.73;1.60;;;;;;;;;;10421463;28;20045;-61
2022/04/23 05:12:39;;;;;;;2.17;1.27;;;;;;;;;;10434330;28;20024;-60
2022/04/23 05:17:39;;;;;;;3.33;1.75;;;;;;;;;;10434236;28;20063;-61
2022/04/23 05:22:40;;;;;;;2.70;1.77;;;;;;;;;;10440966;28;20033;-60
2022/04/23 05:27:40;;;;;;;3.15;1.60;;;;;;;;;;10455623;28;20025;-62
2022/04/23 05:32:41;;;;;;;2.13;1.42;;;;;;;;;;10447500;28;20036;-61
2022/04/23 05:37:42;;;;;;;1.75;1.60;;;;;;;;;;10439429;28;20481;-61
2022/04/23 05:42:42;;;;;;;6.60;1.50;;;;;;;;;;10443449;28;20370;-61
2022/04/23 05:47:43;;;;;;;2.72;1.83;;;;;;;;;;10436347;28;20037;-61
2022/04/23 05:52:43;;;;;;;7.22;1.50;;;;;;;;;;10441992;28;20029;-61
2022/04/23 05:57:44;;;;;;;1.60;1.50;;;;;;;;;;10436625;28;20060;-58
2022/04/23 06:02:45;;;;;;;1.80;1.48;;;;;;;;;;10441883;28;20038;-58
2022/04/23 06:07:45;;;;;;;1.70;1.40;;;;;;;;;;10438778;28;20485;-58
2022/04/23 06:12:46;;;;;;;1.77;1.60;;;;;;;;;;10439000;28;20040;-58
2022/04/23 06:17:47;;;;;;;1.85;1.50;;;;;;;;;;10429672;28;20483;-59
2022/04/23 06:22:47;;;;;;;3.40;1.50;;;;;;;;;;10431187;28;20029;-56
2022/04/23 06:27:48;;;;;;;1.70;1.30;;;;;;;;;;10424510;28;20043;-59
2022/04/23 06:32:49;;;;;;;2.15;1.40;;;;;;;;;;10429768;28;20377;-58
2022/04/23 06:37:50;;;;;;;1.48;1.35;;;;;;;;;;10412570;28;20021;-56
2022/04/23 06:42:50;;;;;;;2.05;1.40;;;;;;;;;;10409080;28;20029;-59
2022/04/23 06:48:06;;;;;;;1.33;1.20;;;;;;;;;;10433396;28;20033;-59
2022/04/23 06:53:07;;;;;;;1.52;1.33;;;;;;;;;;10405249;28;20111;-55
2022/04/23 06:58:07;;;;;;;1.88;1.40;;;;;;;;;;10434128;28;20484;-59
2022/04/23 07:03:08;;;;;;;4.07;1.38;;;;;;;;;;10434029;28;20087;-53
2022/04/23 07:08:09;;;;;;;1.70;1.38;;;;;;;;;;10428697;28;20033;-59
2022/04/23 07:13:10;;;;;;;2.30;1.30;;;;;;;;;;10437256;28;20030;-58
2022/04/23 07:18:11;;;;;;;1.42;1.30;;;;;;;;;;10432922;28;20041;-57
2022/04/23 07:28:31;;;;;;;2.25;1.40;;;;;;;;;;10422023;28;20033;-60
2022/04/23 07:38:52;;;;;;;1.40;1.30;;;;;;;;;;10434017;28;20493;-61
2022/04/23 07:43:53;;;;;;;1.30;1.20;;;;;;;;;;10426714;28;20084;-59
2022/04/23 07:48:53;;;;;;;5.93;1.52;;;;;;;;;;10435851;28;20480;-60
2022/04/23 07:53:55;;;;;;;13.57;7.10;;;;;;;;;;10434925;28;20032;-48
2022/04/23 07:58:55;;;;;;;18.70;8.95;;;;;;;;;;10423611;28;20046;-49
2022/04/23 08:03:56;;;;;;;18.15;8.88;;;;;;;;;;10438468;28;20503;-53
2022/04/23 08:08:57;;;;;;;14.27;8.73;;;;;;;;;;10438165;28;20108;-50
2022/04/23 08:13:57;;;;;;;10.60;6.20;;;;;;;;;;10430549;28;20032;-49
2022/04/23 08:18:59;;;;;;;17.38;8.00;;;;;;;;;;10436347;28;20037;-63
2022/04/23 08:23:59;;;;;;;13.45;7.60;;;;;;;;;;10433468;28;20045;-57
2022/04/23 08:34:19;;;;;;;15.15;6.90;;;;;;;;;;10436540;28;20041;-51
2022/04/23 08:39:20;;;;;;;10.98;6.30;;;;;;;;;;10436252;28;20037;-53
2022/04/23 08:44:21;;;;;;;14.55;6.50;;;;;;;;;;10433665;28;20594;-55
2022/04/23 08:49:32;;;;;;;11.50;6.55;;;;;;;;;;10435638;28;20033;-51
2022/04/23 08:54:33;;;;;;;11.05;6.15;;;;;;;;;;10437047;28;20432;-69
2022/04/23 08:59:36;;;;;;;18.35;6.05;;;;;;;;;;10436468;28;20049;-67
2022/04/23 09:04:37;;;;;;;11.90;5.65;;;;;;;;;;10445271;28;20036;-66
2022/04/23 09:09:51;;;;;;;18.13;5.53;;;;;;;;;;10416246;28;20044;-67
2022/04/23 09:26:17;;;;;;;8.88;4.18;;;;;;;;;;10412150;28;20056;-66
2022/04/23 09:31:17;;;;;;;11.20;4.32;;;;;;;;;;10449236;28;20086;-67
2022/04/23 09:36:19;;;;;;;6.15;3.63;;;;;;;;;;10413231;28;20030;-67
2022/04/23 09:41:34;;;;;;;6.68;4.28;;;;;;;;;;10430104;28;20122;-67
2022/04/23 09:46:46;;;;;;;5.90;3.72;;;;;;;;;;10415791;28;20037;-66
2022/04/23 09:52:08;;;;;;;9.05;3.30;;;;;;;;;;10445424;28;20033;-65
2022/04/23 09:57:10;;;;;;;5.75;3.22;;;;;;;;;;10454391;28;20077;-66
2022/04/23 10:02:19;;;;;;;3.55;2.78;;;;;;;;;;10451887;28;20517;-64
2022/04/23 10:07:24;;;;;;;3.72;2.80;;;;;;;;;;10414218;28;20032;-66
2022/04/23 10:12:27;;;;;;;5.68;2.97;;;;;;;;;;10416342;28;20017;-66
2022/04/23 10:17:28;;;;;;;3.88;2.70;;;;;;;;;;10441035;28;20033;-66
2022/04/23 10:22:39;;;;;;;4.90;2.60;;;;;;;;;;10437738;28;20108;-67
2022/04/23 10:27:40;;;;;;;5.80;2.50;;;;;;;;;;10417294;28;20121;-59
2022/04/23 10:32:41;;;;;;;6.22;2.75;;;;;;;;;;10417233;28;20025;-53
2022/04/23 10:37:42;;;;;;;9.05;2.28;;;;;;;;;;10439872;28;20499;-53
2022/04/23 10:43:12;;;;;;;4.10;2.42;;;;;;;;;;10435897;28;20025;-54
2022/04/23 10:48:24;;;;;;;3.80;2.13;;;;;;;;;;10442335;28;20047;-52
2022/04/23 10:53:37;;;;;;;6.85;2.20;;;;;;;;;;10426901;28;20518;-58
2022/04/23 10:58:38;;;;;;;6.40;2.30;;;;;;;;;;10422662;28;20531;-57
2022/04/23 11:03:39;;;;;;;5.72;2.28;;;;;;;;;;10449275;28;20033;-51
2022/04/23 11:14:04;;;;;;;3.45;2.00;;;;;;;;;;10442745;28;20025;-57
2022/04/23 11:19:07;;;;;;;4.03;2.13;;;;;;;;;;10421523;28;20035;-57
2022/04/23 11:24:11;;;;;;;4.15;1.98;;;;;;;;;;10440424;28;20469;-59
2022/04/23 11:29:13;;;;;;;6.05;2.25;;;;;;;;;;10399426;28;20037;-58
2022/04/23 11:34:14;;;;;;;3.45;2.20;;;;;;;;;;10424012;28;20033;-60
2022/04/23 11:39:15;;;;;;;4.45;2.10;;;;;;;;;;10447274;28;20052;-61
2022/04/23 11:44:20;;;;;;;4.18;1.77;;;;;;;;;;10443799;28;20029;-49
2022/04/23 11:49:32;;;;;;;4.20;1.80;;;;;;;;;;10444388;28;20047;-50
2022/04/23 11:54:44;;;;;;;2.88;1.80;;;;;;;;;;10435909;28;20029;-55
2022/04/23 11:59:46;;;;;;;3.42;2.15;;;;;;;;;;10418368;28;20122;-49
2022/04/23 12:04:49;;;;;;;4.13;1.92;;;;;;;;;;10423723;28;20029;-49
2022/04/23 12:09:59;;;;;;;4.10;2.20;;;;;;;;;;10435951;28;20037;-50
2022/04/23 12:15:09;;;;;;;5.97;1.77;;;;;;;;;;10439332;28;20036;-54
2022/04/23 12:20:12;;;;;;;4.47;2.50;;;;;;;;;;10436066;28;20048;-49
2022/04/23 12:25:18;;;;;;;4.30;1.83;;;;;;;;;;10432397;28;20469;-53
2022/04/23 12:40:58;;;;;;;9.13;2.67;;;;;;;;;;10447440;28;20112;-47
2022/04/23 12:46:09;;;;;;;15.43;2.53;;;;;;;;;;10441724;28;20033;-47
2022/04/23 12:51:10;;;;;;;4.60;2.20;;;;;;;;;;10427584;28;20127;-51
2022/04/23 12:56:10;;;;;;;3.97;1.80;;;;;;;;;;10442669;28;20041;-61
2022/04/23 13:01:12;;;;;;;5.35;2.13;;;;;;;;;;10439479;28;20034;-47
2022/04/23 13:11:31;;;;;;;10.82;2.28;;;;;;;;;;10452637;28;20618;-51
2022/04/23 13:16:36;;;;;;;4.10;1.67;;;;;;;;;;10449804;28;20025;-47
2022/04/23 13:21:36;;;;;;;3.22;1.75;;;;;;;;;;10451828;28;20037;-50
2022/04/23 13:26:37;;;;;;;5.25;1.83;;;;;;;;;;10442433;28;20029;-52
2022/04/23 13:31:39;;;;;;;4.40;1.75;;;;;;;;;;10452235;28;20045;-57
2022/04/23 13:36:40;;;;;;;7.18;2.45;;;;;;;;;;10444192;28;20038;-52
2022/04/23 13:41:42;;;;;;;5.60;1.92;;;;;;;;;;10468565;28;20404;-53
2022/04/23 13:46:43;;;;;;;6.22;2.05;;;;;;;;;;10470483;28;20561;-52
2022/04/23 13:51:44;;;;;;;13.60;2.00;;;;;;;;;;10450480;28;20227;-49
2022/04/23 13:56:47;;;;;;;3.33;1.92;;;;;;;;;;10451304;28;20558;-48
2022/04/23 14:12:25;;;;;;;9.85;2.13;;;;;;;;;;10470788;28;20411;-47
2022/04/23 14:17:27;;;;;;;6.78;2.05;;;;;;;;;;10458412;28;20036;-50
2022/04/23 14:22:28;;;;;;;9.52;1.90;;;;;;;;;;10469600;28;20136;-47
2022/04/23 14:27:29;;;;;;;9.25;1.98;;;;;;;;;;10460716;28;20095;-49
2022/04/23 14:32:30;;;;;;;12.02;2.00;;;;;;;;;;10472750;28;20106;-47
2022/04/23 14:37:33;;;;;;;6.78;2.10;;;;;;;;;;10473516;28;20024;-47
2022/04/23 14:42:33;;;;;;;4.45;2.13;;;;;;;;;;10456101;28;20049;-48
2022/04/23 14:47:34;;;;;;;7.57;2.72;;;;;;;;;;10443373;28;20435;-48
2022/04/23 14:57:54;;;;;;;34.17;12.13;;;;;;;;;;10446200;28;20074;-50
2022/04/23 15:02:57;;;;;;;35.97;14.25;;;;;;;;;;10461237;28;20029;-50
2022/04/23 15:07:57;;;;;;;58.40;25.95;;;;;;;;;;10444233;28;20206;-49
2022/04/23 15:12:58;;;;;;;93.68;41.05;;;;;;;;;;10451725;28;20036;-54
2022/04/23 15:17:59;;;;;;;123.03;55.10;;;;;;;;;;10433616;28;20033;-48
2022/04/23 15:23:02;;;;;;;145.48;69.22;;;;;;;;;;10430208;28;20032;-54
2022/04/23 15:28:03;;;;;;;141.15;70.30;;;;;;;;;;10410198;28;20124;-50
2022/04/23 15:33:04;;;;;;;144.98;71.63;;;;;;;;;;10416742;28;20027;-48
2022/04/23 15:38:04;;;;;;;153.25;77.05;;;;;;;;;;10412163;28;20033;-49
2022/04/23 15:43:05;;;;;;;154.07;77.00;;;;;;;;;;10424991;28;20017;-51
2022/04/23 15:48:08;;;;;;;150.95;76.85;;;;;;;;;;10410337;28;20083;-52
2022/04/23 15:53:08;;;;;;;156.75;78.38;;;;;;;;;;10439200;28;20054;-52
2022/04/23 15:58:10;;;;;;;146.45;76.60;;;;;;;;;;10417600;28;20048;-51
2022/04/23 16:03:25;;;;;;;151.75;75.05;;;;;;;;;;10413853;28;20052;-52
2022/04/23 16:08:27;;;;;;;149.82;75.60;;;;;;;;;;10413401;28;20028;-52
2022/04/23 16:13:28;;;;;;;142.40;71.75;;;;;;;;;;10419890;28;20044;-52
2022/04/23 16:18:28;;;;;;;143.40;71.38;;;;;;;;;;10413854;28;20481;-53
2022/04/23 16:23:29;;;;;;;139.80;70.03;;;;;;;;;;10408355;28;20029;-53
2022/04/23 16:28:30;;;;;;;133.75;66.25;;;;;;;;;;10404657;28;20029;-51
2022/04/23 16:33:30;;;;;;;137.55;65.65;;;;;;;;;;10424295;28;20040;-51
2022/04/23 16:49:09;;;;;;;101.13;55.75;;;;;;;;;;10442492;28;21111;-54
2022/04/23 16:54:10;;;;;;;112.78;56.20;;;;;;;;;;10431450;28;20029;-52
2022/04/23 16:59:11;;;;;;;105.90;53.25;;;;;;;;;;10438886;28;20500;-50
2022/04/23 17:04:11;;;;;;;108.43;51.05;;;;;;;;;;10431859;28;20021;-55
2022/04/23 17:09:12;;;;;;;90.72;48.75;;;;;;;;;;10451190;28;20033;-53
2022/04/23 17:14:13;;;;;;;98.38;47.55;;;;;;;;;;10455154;28;20599;-56
2022/04/23 17:19:14;;;;;;;94.93;47.67;;;;;;;;;;10437963;28;20468;-56
2022/04/23 17:24:17;;;;;;;93.05;45.10;;;;;;;;;;10438136;28;20036;-57
2022/04/23 17:29:17;;;;;;;87.93;44.28;;;;;;;;;;10434692;28;20034;-48
2022/04/23 17:34:18;;;;;;;95.40;44.92;;;;;;;;;;10423130;28;20029;-53
2022/04/23 17:39:19;;;;;;;88.50;42.67;;;;;;;;;;10419447;28;20040;-53
2022/04/23 17:44:20;;;;;;;100.55;44.08;;;;;;;;;;10421634;28;20025;-49
2022/04/23 17:49:20;;;;;;;83.15;39.05;;;;;;;;;;10417730;28;20433;-48
2022/04/23 17:54:22;;;;;;;82.82;38.45;;;;;;;;;;10418118;28;20475;-50
2022/04/23 17:59:23;;;;;;;71.78;34.70;;;;;;;;;;10458620;28;20071;-51
2022/04/23 18:10:04;;;;;;;68.57;31.85;;;;;;;;;;10395961;28;20049;-52
2022/04/23 18:15:05;;;;;;;64.40;30.27;;;;;;;;;;10444581;28;20095;-51
2022/04/23 18:20:06;;;;;;;63.03;28.83;;;;;;;;;;10424472;28;22565;-49
2022/04/23 18:25:07;;;;;;;56.80;29.27;;;;;;;;;;10415649;28;20071;-52
2022/04/23 18:30:09;;;;;;;59.20;28.92;;;;;;;;;;10421668;28;20497;-51
2022/04/23 18:35:09;;;;;;;58.83;27.77;;;;;;;;;;10425431;28;20523;-52
2022/04/23 18:40:13;;;;;;;54.05;27.90;;;;;;;;;;10432481;28;20021;-55
2022/04/23 18:45:15;;;;;;;50.70;25.23;;;;;;;;;;10427272;28;20084;-53
2022/04/23 18:50:16;;;;;;;50.78;25.23;;;;;;;;;;10421664;28;20056;-50
2022/04/23 18:55:17;;;;;;;49.05;24.77;;;;;;;;;;10423345;28;20088;-51
2022/04/23 19:00:18;;;;;;;47.97;23.75;;;;;;;;;;10419843;28;20048;-49
2022/04/23 19:05:20;;;;;;;45.47;24.42;;;;;;;;;;10418643;28;20633;-52
2022/04/23 19:10:21;;;;;;;42.22;23.90;;;;;;;;;;10421264;28;20029;-52
2022/04/23 19:15:22;;;;;;;45.63;21.90;;;;;;;;;;10423100;28;20116;-52
2022/04/23 19:20:22;;;;;;;38.95;21.17;;;;;;;;;;10419923;28;20400;-57
2022/04/23 19:30:53;;;;;;;39.78;19.92;;;;;;;;;;10389170;28;20103;-57
2022/04/23 19:35:54;;;;;;;33.35;18.88;;;;;;;;;;10429629;28;20096;-53
2022/04/23 19:40:55;;;;;;;34.60;17.70;;;;;;;;;;10410574;28;20030;-58
2022/04/23 19:45:55;;;;;;;32.08;18.20;;;;;;;;;;10432839;28;20025;-57
2022/04/23 19:50:57;;;;;;;36.40;18.02;;;;;;;;;;10430590;28;20385;-56
2022/04/23 19:55:57;;;;;;;32.20;17.23;;;;;;;;;;10418234;28;20362;-59
2022/04/23 20:00:58;;;;;;;32.13;16.95;;;;;;;;;;10436027;28;20037;-52
2022/04/23 20:05:59;;;;;;;31.60;16.75;;;;;;;;;;10438570;28;20028;-49
2022/04/23 20:11:00;;;;;;;32.55;16.17;;;;;;;;;;10431847;28;20025;-49
2022/04/23 20:16:01;;;;;;;33.08;16.83;;;;;;;;;;10431921;28;20029;-47
2022/04/23 20:21:01;;;;;;;25.02;14.80;;;;;;;;;;10425779;28;20476;-47
2022/04/23 20:26:02;;;;;;;23.95;14.20;;;;;;;;;;10430248;28;20033;-51
2022/04/23 20:31:03;;;;;;;27.40;14.93;;;;;;;;;;10433015;28;20025;-56
2022/04/23 20:41:22;;;;;;;30.70;13.05;;;;;;;;;;10446640;28;20435;-49
2022/04/23 20:46:23;;;;;;;26.77;11.98;;;;;;;;;;10440619;28;20041;-49
2022/04/23 20:51:26;;;;;;;24.25;11.95;;;;;;;;;;10438896;28;20082;-47
2022/04/23 20:56:27;;;;;;;21.92;11.18;;;;;;;;;;10431476;28;20059;-51
2022/04/23 21:01:28;;;;;;;27.40;10.98;;;;;;;;;;10420064;28;20044;-47
2022/04/23 21:06:28;;;;;;;21.60;10.45;;;;;;;;;;10424963;28;20044;-48
2022/04/23 21:11:29;;;;;;;20.75;10.13;;;;;;;;;;10432046;28;20033;-49
2022/04/23 21:16:29;;;;;;;24.00;10.55;;;;;;;;;;10432743;28;20037;-54
2022/04/23 21:21:30;;;;;;;20.42;9.80;;;;;;;;;;10429266;28;20083;-49
2022/04/23 21:26:31;;;;;;;21.80;10.13;;;;;;;;;;10429359;28;20029;-49
2022/04/23 21:31:31;;;;;;;20.80;9.27;;;;;;;;;;10434581;28;20357;-48
2022/04/23 21:36:32;;;;;;;23.50;9.32;;;;;;;;;;10438882;28;20029;-49
2022/04/23 21:46:51;;;;;;;;;;;;;;;;;;10432043;28;20041;-47
2022/04/23 21:51:52;;;;;;;21.87;7.40;;;;;;;;;;10428722;28;20011;-52
2022/04/23 21:56:52;;;;;;;15.52;7.43;;;;;;;;;;10419384;28;169934;-48
2022/04/23 22:01:54;;;;;;;18.13;7.97;;;;;;;;;;10425960;28;20049;-48
2022/04/23 22:06:54;;;;;;;16.17;7.28;;;;;;;;;;10434711;28;21067;-52
2022/04/23 22:11:55;;;;;;;23.42;7.85;;;;;;;;;;10446355;28;20076;-47
2022/04/23 22:16:56;;;;;;;18.60;6.60;;;;;;;;;;10436131;28;20025;-57
2022/04/23 22:21:56;;;;;;;14.90;6.18;;;;;;;;;;10443659;28;20428;-52
2022/04/23 22:26:57;;;;;;;34.28;6.60;;;;;;;;;;10442129;28;20162;-49
2022/04/23 22:31:58;;;;;;;20.98;6.65;;;;;;;;;;10439050;28;20031;-49
2022/04/23 22:36:58;;;;;;;12.07;6.25;;;;;;;;;;10431040;28;20095;-52
2022/04/23 22:41:59;;;;;;;21.40;6.93;;;;;;;;;;10422153;28;20451;-49
2022/04/23 22:47:00;;;;;;;12.90;5.72;;;;;;;;;;10433460;28;20567;-51
2022/04/23 22:52:00;;;;;;;14.98;6.47;;;;;;;;;;10435795;28;20037;-48
2022/04/23 22:57:01;;;;;;;13.77;5.88;;;;;;;;;;10434141;28;20037;-48
2022/04/23 23:02:02;;;;;;;12.13;5.72;;;;;;;;;;10424480;28;20401;-51
2022/04/23 23:07:03;;;;;;;15.27;6.10;;;;;;;;;;10436689;28;20063;-48
2022/04/23 23:12:04;;;;;;;10.60;5.05;;;;;;;;;;10435426;28;20033;-47
2022/04/23 23:17:05;;;;;;;8.98;5.35;;;;;;;;;;10437107;28;20043;-47
2022/04/23 23:22:06;;;;;;;15.30;5.90;;;;;;;;;;10440282;28;20362;-54
2022/04/23 23:27:06;;;;;;;11.45;5.38;;;;;;;;;;10433791;28;20432;-51
2022/04/23 23:32:07;;;;;;;12.23;5.13;;;;;;;;;;10440315;28;20052;-49
2022/04/23 23:37:08;;;;;;;14.35;5.55;;;;;;;;;;10438690;28;20101;-47
2022/04/23 23:42:09;;;;;;;8.75;4.88;;;;;;;;;;10431270;28;20155;-49
2022/04/23 23:47:09;;;;;;;13.43;4.72;;;;;;;;;;10435596;28;20048;-47
2022/04/23 23:52:11;;;;;;;11.52;4.93;;;;;;;;;;10432089;28;20464;-47
2022/04/23 23:57:12;;;;;;;10.60;5.05;;;;;;;;;;10436631;28;20048;-50
